Time;durP1;ratioP1;P1;durP2;ratioP2;P2;SDS_P1;SDS_P2;PMS_P1;PMS_P2;Temp;Humidity;BMP_temperature;BMP_pressure;BME280_temperature;BME280_humidity;BME280_pressure;Samples;Min_cycle;Max_cycle;Signal;HPM_P1;HPM_P2
2023/05/26 00:00:42;;;;;;;11.63;5.37;;;;;;;7.39;100.00;101829.59;5049792;28;20042;-83
2023/05/26 00:03:10;;;;;;;12.27;5.43;;;;;;;7.31;100.00;101833.91;5049266;28;20044;-82
2023/05/26 00:05:40;;;;;;;15.37;5.57;;;;;;;7.32;100.00;101838.31;5078333;28;20036;-83
2023/05/26 00:08:08;;;;;;;12.33;5.13;;;;;;;7.27;100.00;101833.00;5056180;28;20277;-81
2023/05/26 00:10:35;;;;;;;12.17;6.20;;;;;;;7.22;100.00;101831.16;5050530;28;20110;-83
2023/05/26 00:13:02;;;;;;;15.60;7.17;;;;;;;7.12;100.00;101826.66;5075695;28;20039;-82
2023/05/26 00:15:29;;;;;;;12.83;4.90;;;;;;;7.20;100.00;101830.28;5064437;28;20044;-82
2023/05/26 00:17:57;;;;;;;16.87;5.07;;;;;;;7.01;100.00;101822.16;5047765;28;20032;-83
2023/05/26 00:20:25;;;;;;;9.67;5.67;;;;;;;7.06;100.00;101819.56;5080192;28;20040;-82
2023/05/26 00:22:52;;;;;;;13.63;6.70;;;;;;;7.11;100.00;101817.91;5052854;28;20048;-82
2023/05/26 00:25:19;;;;;;;14.47;6.43;;;;;;;6.97;100.00;101830.84;5082778;28;20036;-83
2023/05/26 00:27:45;;;;;;;11.30;5.03;;;;;;;6.98;100.00;101823.88;5054570;28;20047;-83
2023/05/26 00:30:12;;;;;;;11.93;4.60;;;;;;;6.86;100.00;101821.06;5059251;28;20040;-82
2023/05/26 00:32:39;;;;;;;13.50;5.53;;;;;;;6.79;100.00;101820.09;5063619;28;20039;-82
2023/05/26 00:35:06;;;;;;;14.00;5.87;;;;;;;6.81;100.00;101821.03;5047385;28;20119;-83
2023/05/26 00:37:33;;;;;;;14.50;5.80;;;;;;;6.75;100.00;101829.69;5060832;28;20142;-82
2023/05/26 00:39:59;;;;;;;11.40;4.97;;;;;;;6.73;100.00;101834.06;5059970;28;20036;-82
2023/05/26 00:42:26;;;;;;;11.00;5.80;;;;;;;6.66;100.00;101832.22;5062272;28;20065;-82
2023/05/26 00:44:53;;;;;;;14.83;5.93;;;;;;;6.65;100.00;101827.81;5061498;28;20477;-83
2023/05/26 00:47:19;;;;;;;12.03;5.73;;;;;;;6.63;100.00;101832.13;5075688;28;20329;-83
2023/05/26 00:49:48;;;;;;;13.37;5.73;;;;;;;6.52;100.00;101828.47;5075997;28;20408;-83
2023/05/26 00:52:15;;;;;;;12.73;6.60;;;;;;;6.53;100.00;101825.00;5090646;28;20075;-82
2023/05/26 00:54:42;;;;;;;16.00;5.60;;;;;;;6.49;100.00;101825.81;5066758;28;20040;-82
2023/05/26 00:57:09;;;;;;;10.03;5.60;;;;;;;6.45;100.00;101829.25;5048256;28;20040;-81
2023/05/26 00:59:35;;;;;;;12.60;6.40;;;;;;;6.37;100.00;101829.13;5055264;28;20043;-83
2023/05/26 01:02:04;;;;;;;12.93;5.53;;;;;;;6.33;100.00;101827.34;5091034;28;20122;-82
2023/05/26 01:04:31;;;;;;;13.33;5.67;;;;;;;6.31;100.00;101826.44;5090684;28;20126;-82
2023/05/26 01:06:58;;;;;;;10.30;5.43;;;;;;;6.35;100.00;101832.59;5052369;28;20042;-83
2023/05/26 01:09:25;;;;;;;14.00;5.93;;;;;;;6.32;100.00;101832.56;5053109;28;20475;-83
2023/05/26 01:12:02;;;;;;;11.00;6.73;;;;;;;6.28;100.00;101836.88;5057581;28;20054;-83
2023/05/26 01:14:36;;;;;;;11.20;6.30;;;;;;;6.20;100.00;101836.75;5074012;28;20042;-81
2023/05/26 01:17:11;;;;;;;12.48;5.82;;;;;;;6.30;100.00;101844.75;5048264;28;20511;-82
2023/05/26 01:20:00;;;;;;;13.20;6.90;;;;;;;6.13;100.00;101840.13;5059162;28;20047;-82
2023/05/26 01:22:40;;;;;;;14.83;6.47;;;;;;;6.13;100.00;101839.22;5053744;28;20044;-82
2023/05/26 01:25:25;;;;;;;14.10;6.93;;;;;;;6.00;100.00;101838.16;5060647;28;20126;-82
2023/05/26 01:27:58;;;;;;;12.07;6.30;;;;;;;6.05;100.00;101844.34;5077887;28;20052;-83
2023/05/26 01:30:25;;;;;;;14.57;6.77;;;;;;;5.93;100.00;101852.03;5077565;28;20040;-83
2023/05/26 01:32:52;;;;;;;15.77;7.20;;;;;;;5.81;100.00;101850.03;5058511;28;20515;-82
2023/05/26 01:35:18;;;;;;;15.43;6.73;;;;;;;5.88;100.00;101846.66;5073647;28;20059;-82
2023/05/26 01:37:46;;;;;;;13.30;6.27;;;;;;;5.80;100.00;101850.91;5091995;28;20413;-83
2023/05/26 01:40:13;;;;;;;9.97;5.00;;;;;;;5.82;100.00;101846.56;5058322;28;20489;-83
2023/05/26 01:42:42;;;;;;;14.27;5.90;;;;;;;5.87;100.00;101850.13;5057055;28;20040;-83
2023/05/26 01:45:11;;;;;;;12.47;5.47;;;;;;;5.84;100.00;101838.72;5070894;28;20063;-83
2023/05/26 01:47:39;;;;;;;12.37;5.60;;;;;;;5.74;100.00;101842.91;5051677;28;20043;-83
2023/05/26 01:50:07;;;;;;;10.97;5.77;;;;;;;5.70;100.00;101842.81;5068672;28;20036;-83
2023/05/26 01:52:35;;;;;;;12.77;5.30;;;;;;;5.58;100.00;101841.75;5043117;28;20044;-83
2023/05/26 01:55:07;;;;;;;15.57;5.43;;;;;;;5.59;100.00;101838.25;5066809;28;20044;-82
2023/05/26 01:57:35;;;;;;;12.50;6.30;;;;;;;5.49;100.00;101836.34;5072574;28;20118;-82
2023/05/26 02:00:03;;;;;;;8.97;5.47;;;;;;;5.51;100.00;101841.59;5060674;28;20133;-82
2023/05/26 02:02:30;;;;;;;12.03;5.20;;;;;;;5.53;100.00;101845.13;5070038;28;20036;-83
2023/05/26 02:04:57;;;;;;;10.53;5.23;;;;;;;5.57;100.00;101854.84;5073248;28;20040;-83
2023/05/26 02:07:24;;;;;;;14.67;5.73;;;;;;;5.46;100.00;101851.97;5072303;27;20112;-82
2023/05/26 02:09:51;;;;;;;13.57;5.60;;;;;;;5.42;100.00;101849.28;5065979;28;20135;-83
2023/05/26 02:12:18;;;;;;;12.50;6.50;;;;;;;5.43;100.00;101851.06;5048715;28;20051;-83
2023/05/26 02:14:44;;;;;;;9.83;4.97;;;;;;;5.38;100.00;101850.94;5059954;28;20040;-83
2023/05/26 02:17:13;;;;;;;14.43;5.67;;;;;;;5.32;100.00;101849.09;5060525;28;20091;-82
2023/05/26 02:19:40;;;;;;;9.80;5.37;;;;;;;5.31;100.00;101852.59;5053147;28;20519;-82
2023/05/26 02:22:07;;;;;;;11.13;5.70;;;;;;;5.24;100.00;101845.44;5060794;28;20086;-83
2023/05/26 02:24:33;;;;;;;11.13;5.73;;;;;;;5.25;100.00;101857.69;5073950;28;20126;-82
2023/05/26 02:27:00;;;;;;;12.83;5.73;;;;;;;5.13;100.00;101851.31;5060028;28;20154;-82
2023/05/26 02:29:27;;;;;;;12.07;5.77;;;;;;;5.09;100.00;101851.25;5060474;28;20515;-82
2023/05/26 02:31:53;;;;;;;11.57;5.70;;;;;;;5.05;100.00;101861.66;5058198;28;20116;-82
2023/05/26 02:34:20;;;;;;;9.20;5.03;;;;;;;4.97;100.00;101852.75;5082651;28;20071;-82
2023/05/26 02:36:47;;;;;;;9.80;5.50;;;;;;;5.07;100.00;101857.31;5053812;28;20123;-82
2023/05/26 02:39:14;;;;;;;16.30;7.00;;;;;;;5.06;100.00;101856.44;5066149;28;20050;-83
2023/05/26 02:41:40;;;;;;;9.27;5.17;;;;;;;4.98;100.00;101851.88;5036733;28;20040;-83
2023/05/26 02:44:07;;;;;;;13.47;5.90;;;;;;;4.99;100.00;101862.38;5067550;28;20044;-82
2023/05/26 02:46:34;;;;;;;13.63;5.83;;;;;;;4.92;100.00;101857.88;5060843;28;20480;-83
2023/05/26 02:49:01;;;;;;;14.77;5.83;;;;;;;4.92;100.00;101868.34;5047190;28;20410;-83
2023/05/26 02:51:28;;;;;;;11.30;6.07;;;;;;;4.89;100.00;101856.94;5071585;28;20097;-83
2023/05/26 02:53:54;;;;;;;14.30;5.87;;;;;;;4.89;100.00;101859.53;5066332;28;20040;-82
2023/05/26 02:56:21;;;;;;;16.73;5.80;;;;;;;4.83;100.00;101852.44;5072193;28;20040;-83
2023/05/26 02:58:48;;;;;;;9.90;5.77;;;;;;;4.80;100.00;101860.22;5067616;28;20040;-84
2023/05/26 03:01:14;;;;;;;8.87;5.73;;;;;;;4.73;100.00;101860.94;5090236;28;20036;-83
2023/05/26 03:03:41;;;;;;;14.37;5.23;;;;;;;4.64;100.00;101861.63;5053758;28;20052;-84
2023/05/26 03:06:08;;;;;;;9.53;5.13;;;;;;;4.72;100.00;101867.03;5051713;28;20565;-83
2023/05/26 03:08:37;;;;;;;11.80;5.47;;;;;;;4.75;100.00;101872.31;5063864;28;20038;-83
2023/05/26 03:11:04;;;;;;;13.43;5.33;;;;;;;4.65;100.00;101870.34;5057730;28;20043;-82
2023/05/26 03:13:37;;;;;;;7.67;5.50;;;;;;;4.67;100.00;101873.88;5063616;28;20040;-82
2023/05/26 03:16:04;;;;;;;11.40;5.17;;;;;;;4.71;100.00;101878.34;5057484;28;20074;-83
2023/05/26 03:18:32;;;;;;;13.40;5.10;;;;;;;4.77;100.00;101876.72;5071492;28;20417;-83
2023/05/26 03:20:59;;;;;;;10.43;5.33;;;;;;;4.66;100.00;101879.97;5052120;28;20031;-83
2023/05/26 03:23:25;;;;;;;11.73;5.40;;;;;;;4.78;100.00;101875.00;5051118;28;20134;-83
2023/05/26 03:25:52;;;;;;;10.30;5.37;;;;;;;4.70;100.00;101872.19;5050963;28;20132;-83
2023/05/26 03:28:19;;;;;;;10.60;4.60;;;;;;;4.70;100.00;101872.19;5066174;28;20048;-83
2023/05/26 03:30:45;;;;;;;8.20;4.73;;;;;;;4.76;100.00;101884.56;5049419;28;20417;-83
2023/05/26 03:33:12;;;;;;;9.83;5.43;;;;;;;4.73;100.00;101879.25;5075154;28;20488;-83
2023/05/26 03:35:39;;;;;;;18.70;6.50;;;;;;;4.77;100.00;101879.34;5066052;28;20238;-84
2023/05/26 03:38:05;;;;;;;9.63;5.37;;;;;;;4.79;100.00;101882.00;5058551;28;20047;-83
2023/05/26 03:40:32;;;;;;;12.43;5.83;;;;;;;4.85;100.00;101876.03;5061840;28;20032;-84
2023/05/26 03:43:01;;;;;;;11.70;5.70;;;;;;;4.87;100.00;101874.31;5051450;28;20040;-84
2023/05/26 03:45:28;;;;;;;12.00;5.33;;;;;;;4.78;100.00;101882.84;5071954;28;20079;-83
2023/05/26 03:47:54;;;;;;;12.43;5.50;;;;;;;4.84;100.00;101874.25;5051439;28;20056;-85
2023/05/26 03:50:21;;;;;;;13.57;6.20;;;;;;;4.85;100.00;101883.88;5051222;28;20040;-83
2023/05/26 03:52:48;;;;;;;10.93;5.50;;;;;;;4.95;100.00;101893.69;5068283;28;20123;-83
2023/05/26 03:55:17;;;;;;;10.47;6.20;;;;;;;4.85;100.00;101891.72;5077617;28;20071;-85
2023/05/26 03:57:44;;;;;;;17.97;6.83;;;;;;;4.91;100.00;101890.16;5044777;28;20048;-83
2023/05/26 04:00:12;;;;;;;14.33;5.27;;;;;;;4.89;100.00;101898.81;5053356;28;20051;-84
2023/05/26 04:02:38;;;;;;;16.60;5.50;;;;;;;4.97;100.00;101902.50;5052289;28;20071;-83
2023/05/26 04:05:06;;;;;;;10.83;5.73;;;;;;;5.09;100.00;101902.75;5044236;28;20063;-82
2023/05/26 04:07:33;;;;;;;14.53;5.80;;;;;;;5.19;100.00;101907.34;5047081;28;20039;-84
2023/05/26 04:09:59;;;;;;;20.80;6.70;;;;;;;5.25;100.00;101907.47;5054865;28;20195;-83
2023/05/26 04:12:26;;;;;;;12.17;5.37;;;;;;;5.22;100.00;101904.81;5042001;28;20561;-83
2023/05/26 04:14:53;;;;;;;14.17;5.97;;;;;;;5.25;100.00;101904.84;5041736;28;20404;-83
2023/05/26 04:17:19;;;;;;;12.40;5.27;;;;;;;5.28;100.00;101911.88;5054350;28;20277;-84
2023/05/26 04:19:46;;;;;;;11.17;5.30;;;;;;;5.33;100.00;101911.13;5061766;28;20032;-83
2023/05/26 04:22:13;;;;;;;17.63;5.10;;;;;;;5.38;100.00;101911.22;5045655;28;20770;-83
2023/05/26 04:24:40;;;;;;;10.27;4.80;;;;;;;5.44;100.00;101910.47;5048882;28;20523;-82
2023/05/26 04:27:07;;;;;;;10.27;5.37;;;;;;;5.55;100.00;101920.34;5046201;28;20071;-84
2023/05/26 04:29:34;;;;;;;11.40;5.03;;;;;;;5.75;100.00;101917.22;5067017;28;20043;-84
2023/05/26 04:32:02;;;;;;;10.47;4.87;;;;;;;5.64;100.00;101917.91;5057914;28;20054;-84
2023/05/26 04:34:29;;;;;;;13.87;5.03;;;;;;;5.74;100.00;101924.19;5058649;28;20059;-83
2023/05/26 04:37:03;;;;;;;9.63;4.93;;;;;;;5.82;100.00;101917.38;5046703;28;20098;-85
2023/05/26 04:39:30;;;;;;;10.30;4.97;;;;;;;5.78;100.00;101927.75;5062060;28;20044;-84
2023/05/26 04:41:58;;;;;;;10.97;5.23;;;;;;;5.87;100.00;101927.94;5076053;28;20042;-83
2023/05/26 04:44:24;;;;;;;11.07;5.27;;;;;;;6.03;100.00;101929.13;5057652;28;20043;-83
2023/05/26 04:46:52;;;;;;;12.83;5.20;;;;;;;6.13;100.00;101924.06;5072596;28;20060;-83
2023/05/26 04:49:22;;;;;;;15.70;5.80;;;;;;;6.17;100.00;101925.91;5052681;28;20047;-83
2023/05/26 04:51:59;;;;;;;9.97;4.37;;;;;;;6.28;100.00;101919.97;5055389;28;20611;-84
2023/05/26 04:54:26;;;;;;;9.53;4.73;;;;;;;6.37;100.00;101928.00;5067768;28;20036;-83
2023/05/26 04:56:53;;;;;;;10.53;5.30;;;;;;;6.39;100.00;101934.13;5077246;28;20112;-84
2023/05/26 04:59:37;;;;;;;10.50;4.90;;;;;;;6.51;100.00;101923.88;5057980;28;20048;-83
2023/05/26 05:02:20;;;;;;;9.77;5.07;;;;;;;6.62;100.00;101932.78;5069783;28;20078;-83
2023/05/26 05:04:55;;;;;;;11.97;5.07;;;;;;;7.01;100.00;101932.53;5085218;28;20039;-83
2023/05/26 05:07:22;;;;;;;10.57;4.83;;;;;;;7.42;100.00;101928.69;5086111;28;20310;-84
2023/05/26 05:09:49;;;;;;;11.67;5.40;;;;;;;7.67;100.00;101933.38;5100060;28;20106;-82
2023/05/26 05:12:16;;;;;;;8.70;4.40;;;;;;;7.71;100.00;101919.38;5086628;28;20132;-82
2023/05/26 05:14:42;;;;;;;8.43;4.73;;;;;;;7.77;100.00;101921.22;5085214;28;20478;-84
2023/05/26 05:17:09;;;;;;;11.47;5.27;;;;;;;7.78;100.00;101926.50;5098472;28;20042;-83
2023/05/26 05:19:36;;;;;;;15.60;5.63;;;;;;;7.86;100.00;101922.19;5102323;28;20055;-82
2023/05/26 05:22:03;;;;;;;9.67;4.97;;;;;;;8.00;100.00;101927.63;5086201;28;20040;-84
2023/05/26 05:24:29;;;;;;;13.67;4.83;;;;;;;8.04;100.00;101925.88;5081232;28;20081;-84
2023/05/26 05:26:57;;;;;;;12.67;5.77;;;;;;;8.64;100.00;101929.97;5079454;28;20540;-83
2023/05/26 05:29:23;;;;;;;41.33;8.70;;;;;;;9.37;100.00;101935.72;5056644;28;20103;-83
2023/05/26 05:31:50;;;;;;;18.07;6.00;;;;;;;9.54;100.00;101934.03;5101510;28;20070;-84
2023/05/26 05:34:17;;;;;;;23.83;5.73;;;;;;;9.69;100.00;101929.69;5098444;28;20109;-84
2023/05/26 05:36:44;;;;;;;17.85;6.00;;;;;;;9.89;100.00;101943.81;5080407;28;20072;-83
2023/05/26 05:39:10;;;;;;;12.43;6.30;;;;;;;10.71;100.00;101938.66;5073615;28;20050;-84
2023/05/26 05:41:37;;;;;;;16.70;5.35;;;;;;;12.18;100.00;101935.50;5083358;28;20078;-83
2023/05/26 05:44:04;;;;;;;10.82;4.85;;;;;;;13.52;92.29;101926.28;5084929;28;20051;-84
2023/05/26 05:46:30;;;;;;;14.75;5.35;;;;;;;14.78;74.86;101932.41;5061341;28;20046;-83
2023/05/26 05:48:57;;;;;;;11.52;5.28;;;;;;;15.77;69.67;101928.72;5078459;28;20040;-85
2023/05/26 05:51:24;;;;;;;14.07;4.90;;;;;;;16.45;63.73;101933.34;5059048;28;20485;-83
2023/05/26 05:53:51;;;;;;;8.35;3.97;;;;;;;17.07;60.26;101938.03;5081635;28;20107;-82
2023/05/26 05:56:18;;;;;;;10.98;4.78;;;;;;;16.60;59.39;101932.97;5060796;28;20036;-82
2023/05/26 05:58:47;;;;;;;12.70;5.30;;;;;;;17.16;60.26;101932.44;5074560;28;20094;-82
2023/05/26 06:01:13;;;;;;;13.10;4.38;;;;;;;17.69;57.86;101928.22;5069087;28;20080;-82
2023/05/26 06:03:40;;;;;;;102.88;16.00;;;;;;;17.26;58.11;101925.91;5060579;28;20052;-81
2023/05/26 06:06:07;;;;;;;15.27;5.45;;;;;;;17.11;58.73;101926.34;5064578;28;20051;-82
2023/05/26 06:08:34;;;;;;;12.65;4.35;;;;;;;16.97;58.93;101932.03;5085254;28;20044;-83
2023/05/26 06:11:02;;;;;;;17.95;5.00;;;;;;;16.43;61.21;101932.53;5069798;28;20052;-81
2023/05/26 06:13:29;;;;;;;13.98;5.60;;;;;;;15.98;64.26;101930.03;5067108;28;20043;-82
2023/05/26 06:15:55;;;;;;;16.48;4.97;;;;;;;15.96;66.99;101936.28;5080910;28;20048;-82
2023/05/26 06:18:22;;;;;;;14.70;5.35;;;;;;;15.96;65.79;101939.84;5081536;28;20040;-84
2023/05/26 06:20:50;;;;;;;10.80;5.15;;;;;;;16.01;65.05;101943.28;5066360;28;20115;-83
2023/05/26 06:23:18;;;;;;;9.07;4.55;;;;;;;16.08;65.78;101945.81;5072438;28;20151;-84
2023/05/26 06:25:46;;;;;;;10.48;5.28;;;;;;;16.27;63.34;101945.34;5059615;28;20044;-83
2023/05/26 06:28:13;;;;;;;15.95;5.40;;;;;;;16.18;62.97;101948.22;5063099;28;20108;-81
2023/05/26 06:30:40;;;;;;;12.13;4.53;;;;;;;16.18;63.78;101953.56;5061108;28;20070;-81
2023/05/26 06:33:07;;;;;;;14.50;5.47;;;;;;;15.82;63.92;101957.06;5083443;28;20055;-82
2023/05/26 06:35:35;;;;;;;10.10;4.53;;;;;;;16.13;63.89;101959.91;5067481;28;20046;-82
2023/05/26 06:38:04;;;;;;;17.25;5.35;;;;;;;15.90;62.80;101953.31;5080480;28;20048;-81
2023/05/26 06:40:31;;;;;;;14.02;4.55;;;;;;;15.91;63.23;101948.88;5067006;28;20039;-82
2023/05/26 06:42:59;;;;;;;10.82;4.47;;;;;;;16.08;63.51;101951.16;5072666;28;20051;-82
2023/05/26 06:45:26;;;;;;;13.25;5.28;;;;;;;15.98;63.11;101943.38;5066594;28;20067;-83
2023/05/26 06:47:52;;;;;;;17.52;5.38;;;;;;;16.19;63.32;101957.97;5063234;28;20109;-81
2023/05/26 06:50:19;;;;;;;13.35;4.65;;;;;;;16.14;62.77;101964.31;5093064;28;20044;-82
2023/05/26 06:52:46;;;;;;;14.60;4.68;;;;;;;16.00;61.66;101962.84;5063904;28;20066;-83
2023/05/26 06:55:13;;;;;;;15.65;5.53;;;;;;;16.05;61.16;101966.28;5072650;28;20040;-82
2023/05/26 06:57:40;;;;;;;16.95;4.85;;;;;;;16.08;60.53;101964.47;5072531;28;20051;-82
2023/05/26 07:00:07;;;;;;;15.32;5.03;;;;;;;16.18;62.15;101968.69;5053823;28;20131;-83
2023/05/26 07:02:33;;;;;;;10.90;5.28;;;;;;;16.08;60.04;101970.69;5062467;28;20052;-82
2023/05/26 07:05:03;;;;;;;21.20;6.25;;;;;;;15.98;58.61;101964.69;5063105;28;20055;-83
2023/05/26 07:07:32;;;;;;;14.75;4.47;;;;;;;15.56;60.18;101971.78;5067307;28;20043;-81
2023/05/26 07:09:58;;;;;;;12.82;4.85;;;;;;;15.67;60.43;101977.78;5063522;28;20046;-81
2023/05/26 07:12:25;;;;;;;17.33;5.15;;;;;;;15.58;61.59;101969.94;5074710;28;20046;-82
2023/05/26 07:14:52;;;;;;;11.77;4.50;;;;;;;15.54;60.65;101962.91;5060587;28;20050;-83
2023/05/26 07:17:19;;;;;;;14.18;4.32;;;;;;;15.82;62.50;101971.25;5064023;28;20111;-82
2023/05/26 07:19:46;;;;;;;14.73;4.75;;;;;;;15.84;59.74;101971.22;5070026;28;20048;-83
2023/05/26 07:22:32;;;;;;;12.52;4.35;;;;;;;16.14;58.50;101964.31;5068186;28;20047;-83
2023/05/26 07:25:01;;;;;;;15.30;4.55;;;;;;;16.11;55.88;101964.41;5072582;28;20053;-81
2023/05/26 07:27:28;;;;;;;15.27;6.70;;;;;;;15.60;58.71;101973.44;5060520;28;20040;-82
2023/05/26 07:29:55;;;;;;;10.55;5.05;;;;;;;15.82;55.82;101973.06;5049638;28;20040;-83
2023/05/26 07:32:22;;;;;;;13.20;4.70;;;;;;;16.05;58.26;101966.28;5070280;28;20156;-82
2023/05/26 07:34:48;;;;;;;15.23;4.85;;;;;;;16.35;56.66;101966.50;5074317;28;20058;-81
2023/05/26 07:37:15;;;;;;;15.27;4.78;;;;;;;16.53;55.48;101968.72;5061888;28;20040;-80
2023/05/26 07:39:42;;;;;;;14.93;4.65;;;;;;;16.66;54.80;101963.97;5063312;28;20147;-83
2023/05/26 07:42:08;;;;;;;17.55;5.22;;;;;;;16.97;56.22;101960.53;5046805;28;20727;-80
2023/05/26 07:44:35;;;;;;;15.63;4.82;;;;;;;16.82;54.68;101956.50;5072879;28;20121;-81
2023/05/26 07:47:02;;;;;;;13.80;4.95;;;;;;;16.92;54.26;101967.81;5070045;28;20044;-81
2023/05/26 07:49:28;;;;;;;15.13;4.82;;;;;;;16.59;54.08;101973.91;5054699;28;20036;-83
2023/05/26 07:51:55;;;;;;;14.40;4.85;;;;;;;17.06;55.38;101968.31;5060477;28;20048;-82
2023/05/26 07:54:22;;;;;;;18.23;5.00;;;;;;;17.28;51.62;101980.16;5054188;28;20044;-82
2023/05/26 07:56:49;;;;;;;10.77;4.20;;;;;;;17.63;51.51;101970.28;5062075;28;20044;-82
2023/05/26 07:59:16;;;;;;;9.25;3.83;;;;;;;17.39;49.96;101971.84;5091429;28;20040;-80
2023/05/26 08:01:43;;;;;;;15.57;4.55;;;;;;;17.70;47.23;101979.91;5043228;28;20299;-82
2023/05/26 08:04:10;;;;;;;11.13;4.65;;;;;;;18.09;46.59;101969.84;5053160;28;20047;-80
2023/05/26 08:06:36;;;;;;;12.50;4.32;;;;;;;17.80;45.00;101973.38;5071367;28;20485;-81
2023/05/26 08:09:03;;;;;;;10.52;4.18;;;;;;;18.08;47.61;101970.75;5066846;28;20032;-82
2023/05/26 08:11:30;;;;;;;13.20;4.80;;;;;;;18.37;44.90;101968.97;5047108;28;20047;-83
2023/05/26 08:13:56;;;;;;;9.55;4.13;;;;;;;18.33;42.73;101978.91;5058126;28;20032;-84
2023/05/26 08:16:23;;;;;;;8.77;3.33;;;;;;;18.38;42.68;101973.38;5058103;28;20050;-80
2023/05/26 08:18:50;;;;;;;7.90;3.60;;;;;;;18.46;41.17;101974.00;5069851;28;20048;-81
2023/05/26 08:21:17;;;;;;;9.93;3.83;;;;;;;18.41;41.52;101974.16;5068922;28;20473;-82
2023/05/26 08:23:44;;;;;;;11.38;3.38;;;;;;;17.97;42.43;101978.22;5066363;28;20074;-81
2023/05/26 08:26:10;;;;;;;10.60;3.92;;;;;;;18.22;42.80;101972.97;5066243;28;20040;-81
2023/05/26 08:28:37;;;;;;;11.98;3.60;;;;;;;18.23;43.83;101970.25;5049358;28;20074;-82
2023/05/26 08:31:05;;;;;;;9.55;4.50;;;;;;;18.42;44.50;101964.34;5057895;28;20050;-82
2023/05/26 08:33:32;;;;;;;12.85;4.53;;;;;;;18.45;42.12;101962.44;5044493;28;20051;-81
2023/05/26 08:35:58;;;;;;;8.85;4.10;;;;;;;18.80;42.39;101955.94;5061814;28;20032;-82
2023/05/26 08:38:25;;;;;;;10.23;3.78;;;;;;;18.74;42.58;101963.28;5047016;28;20556;-81
2023/05/26 08:40:56;;;;;;;11.65;4.13;;;;;;;18.86;40.55;101957.53;5056204;28;20101;-81
2023/05/26 08:43:27;;;;;;;12.20;3.80;;;;;;;18.36;41.65;101953.84;5086919;28;20059;-80
2023/05/26 08:46:12;;;;;;;9.10;3.80;;;;;;;18.17;42.33;101956.22;5073932;28;20048;-81
2023/05/26 08:48:39;;;;;;;10.30;3.50;;;;;;;17.92;42.21;101951.63;5053941;28;20036;-82
2023/05/26 08:51:10;;;;;;;10.65;3.30;;;;;;;18.54;42.04;101948.75;5047937;28;20521;-80
2023/05/26 08:53:37;;;;;;;11.10;4.47;;;;;;;18.63;40.70;101950.25;5071586;28;20071;-81
2023/05/26 08:56:04;;;;;;;8.25;3.47;;;;;;;18.78;42.24;101948.88;5045070;28;20050;-83
2023/05/26 08:58:33;;;;;;;9.30;4.63;;;;;;;19.27;40.95;101949.84;5045834;28;20515;-81
2023/05/26 09:01:01;;;;;;;8.85;3.90;;;;;;;19.61;40.76;101953.06;5052060;28;20537;-81
2023/05/26 09:03:28;;;;;;;10.73;4.18;;;;;;;19.56;38.02;101951.44;5056704;28;20110;-81
2023/05/26 09:05:56;;;;;;;9.18;3.53;;;;;;;19.64;38.20;101949.38;5058202;28;20094;-81
2023/05/26 09:08:23;;;;;;;13.20;3.83;;;;;;;19.93;38.74;101949.16;5071484;28;20046;-81
2023/05/26 09:10:49;;;;;;;8.52;3.45;;;;;;;19.96;37.88;101942.78;5078617;28;20412;-82
2023/05/26 09:13:21;;;;;;;10.75;3.72;;;;;;;19.78;36.62;101944.38;5051044;28;20047;-81
2023/05/26 09:15:51;;;;;;;9.48;3.63;;;;;;;19.51;37.49;101953.44;5090635;28;20126;-82
2023/05/26 09:18:28;;;;;;;7.63;3.42;;;;;;;19.69;38.69;101955.47;5073099;28;20032;-82
2023/05/26 09:20:55;;;;;;;10.45;3.63;;;;;;;19.23;38.73;101958.91;5056664;28;20044;-81
2023/05/26 09:23:22;;;;;;;40.28;6.38;;;;;;;19.61;38.11;101953.06;5075910;28;20054;-82
2023/05/26 09:25:51;;;;;;;8.70;3.30;;;;;;;19.77;36.92;101957.84;5057204;28;20059;-83
2023/05/26 09:28:20;;;;;;;7.93;3.47;;;;;;;19.51;37.38;101969.53;5057594;28;20039;-83
2023/05/26 09:30:47;;;;;;;10.13;3.65;;;;;;;19.07;37.70;101970.16;5069972;28;20397;-82
2023/05/26 09:33:16;;;;;;;8.02;3.08;;;;;;;19.71;37.88;101960.75;5052156;28;20044;-82
2023/05/26 09:35:47;;;;;;;9.98;3.85;;;;;;;19.97;37.42;101960.63;5055646;28;20040;-81
2023/05/26 09:38:16;;;;;;;219.45;27.83;;;;;;;20.15;38.64;101950.97;5050029;28;20488;-82
2023/05/26 09:40:44;;;;;;;9.15;3.50;;;;;;;20.46;38.52;101948.84;5049138;28;20064;-82
2023/05/26 09:43:11;;;;;;;16.55;4.00;;;;;;;19.98;38.25;101946.28;5071427;28;20066;-83
2023/05/26 09:45:39;;;;;;;13.95;4.60;;;;;;;20.17;37.96;101952.66;5062184;28;20544;-84
2023/05/26 09:48:10;;;;;;;8.10;2.85;;;;;;;20.44;37.73;101949.84;5061600;28;20422;-81
2023/05/26 09:50:41;;;;;;;8.82;3.30;;;;;;;20.32;34.20;101956.53;5071400;28;20032;-83
2023/05/26 09:53:09;;;;;;;8.90;3.42;;;;;;;19.72;35.56;101951.78;5064566;28;20044;-82
2023/05/26 09:55:38;;;;;;;9.32;3.80;;;;;;;19.27;36.69;101958.75;5052217;28;20040;-82
2023/05/26 09:58:07;;;;;;;9.18;3.72;;;;;;;19.63;36.93;101953.88;5049370;28;20776;-81
2023/05/26 10:00:35;;;;;;;9.77;3.70;;;;;;;19.80;37.58;101965.78;5053464;28;20040;-82
2023/05/26 10:03:06;;;;;;;8.02;3.42;;;;;;;19.56;38.23;101962.16;5076951;28;20516;-83
2023/05/26 10:05:34;;;;;;;12.52;3.35;;;;;;;19.36;36.85;101965.59;5046557;28;20127;-83
2023/05/26 10:08:01;;;;;;;8.30;3.30;;;;;;;19.65;37.84;101964.53;5039333;28;20470;-82
2023/05/26 10:10:33;;;;;;;19.15;4.50;;;;;;;20.00;37.37;101952.44;5070918;28;20400;-83
2023/05/26 10:13:01;;;;;;;14.82;3.78;;;;;;;20.17;37.27;101946.41;5046173;28;20570;-81
2023/05/26 10:15:28;;;;;;;396.35;49.80;;;;;;;20.59;36.48;101949.19;5050058;28;20130;-82
2023/05/26 10:17:56;;;;;;;11.35;3.38;;;;;;;20.00;36.77;101951.56;5069840;28;20035;-82
2023/05/26 10:20:24;;;;;;;9.90;3.90;;;;;;;20.03;36.86;101949.66;5041682;28;20052;-83
2023/05/26 10:23:03;;;;;;;165.88;23.90;;;;;;;20.38;37.15;101947.38;5068106;28;20051;-82
2023/05/26 10:25:34;;;;;;;15.32;3.90;;;;;;;20.04;35.83;101950.53;5071545;28;20039;-82
2023/05/26 10:28:20;;;;;;;10.27;3.33;;;;;;;20.15;36.95;101946.50;5057106;28;20040;-82
2023/05/26 10:31:04;;;;;;;8.43;3.25;;;;;;;20.36;36.02;101955.50;5094595;28;20055;-82
2023/05/26 10:33:41;;;;;;;8.80;3.28;;;;;;;20.17;35.92;101947.28;5079526;28;20040;-84
2023/05/26 10:36:10;;;;;;;9.68;3.47;;;;;;;20.27;36.29;101942.47;5070987;28;20413;-82
2023/05/26 10:38:48;;;;;;;8.05;3.95;;;;;;;20.37;35.94;101941.13;5075675;28;20036;-81
2023/05/26 10:41:33;;;;;;;11.07;3.92;;;;;;;20.42;34.74;101947.16;5078772;28;20077;-81
2023/05/26 10:44:02;;;;;;;10.05;2.88;;;;;;;20.41;33.73;101940.06;5076523;28;20050;-81
2023/05/26 10:46:44;;;;;;;16.65;4.13;;;;;;;20.53;34.77;101938.72;5071011;28;20581;-82
2023/05/26 10:49:21;;;;;;;13.40;3.40;;;;;;;20.37;35.54;101932.22;5064066;28;20085;-81
2023/05/26 10:51:52;;;;;;;49.42;9.18;;;;;;;20.46;35.00;101935.41;5048580;28;20067;-81
2023/05/26 10:54:24;;;;;;;11.88;4.40;;;;;;;20.82;34.52;101942.84;5086900;28;20178;-83
2023/05/26 10:56:54;;;;;;;8.55;3.33;;;;;;;20.50;33.95;101941.53;5058027;28;20050;-81
2023/05/26 10:59:31;;;;;;;13.05;4.35;;;;;;;20.62;34.07;101942.84;5090227;28;20031;-82
2023/05/26 11:02:03;;;;;;;10.15;3.53;;;;;;;20.39;35.47;101957.19;5059223;28;20067;-82
2023/05/26 11:04:41;;;;;;;13.32;3.88;;;;;;;20.28;35.07;101949.56;5063634;28;20106;-84
2023/05/26 11:07:16;;;;;;;9.63;3.97;;;;;;;20.34;37.58;101959.16;5082574;28;20048;-85
2023/05/26 11:10:05;;;;;;;15.32;3.90;;;;;;;20.12;36.51;101941.25;5061580;28;20053;-81
2023/05/26 11:12:33;;;;;;;8.95;3.88;;;;;;;20.30;36.71;101942.31;5061087;28;20082;-81
2023/05/26 11:15:29;;;;;;;7.28;3.35;;;;;;;20.43;36.55;101943.63;5056382;28;20051;-82
2023/05/26 11:18:08;;;;;;;7.10;3.40;;;;;;;20.27;35.97;101946.94;5090233;28;20087;-82
2023/05/26 11:20:36;;;;;;;7.88;3.35;;;;;;;20.45;35.43;101946.22;5069300;28;20060;-82
2023/05/26 11:23:03;;;;;;;6.70;3.17;;;;;;;20.47;35.00;101930.91;5055888;28;20043;-81
2023/05/26 11:25:29;;;;;;;10.25;3.75;;;;;;;20.41;34.76;101923.94;5056892;28;20044;-81